Soaring Guidance
Issued by NWS Reno, NV

Home | Current Version | Previous Version | Text Only | Print | Product List | Glossary On
Versions: 1 2 3 4 5 6 7 8 9 10 11 12 13 14 15 16
540
UXUS97 KREV 301355
SRGREV

SOARING FORECAST
NATIONAL WEATHER SERVICE - RENO NV
700 AM PDT MON MAY 30 2016

THIS SOARING FORECAST IS FOR THE EASTERN SIERRA AND WESTERN NEVADA
WITH SPECIFIC INDICES FOR THE GREATER RENO AREA.

THIS FORECAST IS PREPARED DAILY BY 700 AM AND IS NOT UPDATED.

FOR CURRENT FLIGHT CONDITIONS...FORECASTS...AND ADVISORIES...ACCESS
YOUR LOCAL BRIEFING OUTLET OR FLIGHT SERVICE STATION.

*******************************************************************
FORECASTED LOCAL INDICES FOR RENO:        TODAY     YESTERDAY
FORECASTED MAX TEMP AT RENO (DEG F).....     88          86
FORECASTED TRIGGER TEMPERATURE (DEG F)..     67          67
   EXCEEDED YESTERDAY BY 955 AM PDT
FORECASTED MAXIMUM ALTITUDE (FT MSL)....  18000       16800
FORECASTED SOARING INDEX (FPM)..........   1050        1044
FORECASTED K-INDEX.........VALID 18Z....     21          22
FORECASTED K-INDEX.........VALID 00Z....     20          27
FORECASTED LIFTED INDEX....VALID 18Z....      3           5
FORECASTED LIFTED INDEX....VALID 00Z....      5           3

AFTERNOON WINDS ALOFT FORECAST
MSL (FT) WIND/TEMP
9000  3506/+12
10000 3306/+09
12000 3206/+04
14000 3207/-01
16000 3309/-06
18000 3413/-11
24000 3529/-24
30000 3532/-42
34000 3544/-52
39000 3535/-63

SLIDE MOUNTAIN DATA:
     DATE       TIME     TEMP  DEWPT   RH         WIND (MPH)
                        (F)   (F)           | DIR  SPEED GUST
2016-05-30    05:50      42    29     64    | 034   13   17
2016-05-30    05:30      42    29     64    | 032   11   15
2016-05-30    05:20      42    29     65    | 032   13   17
2016-05-30    05:00      42    29     64    | 036   13   16

RENO TAF FORECAST:
KRNO 301122Z 3012/3112 30005KT P6SM SCT200
     FM302200 33012G18KT P6SM FEW080 SCT200

CARSON CITY TAF FORECAST:
KCXP 301122Z 3012/3112 VRB03KT P6SM SCT250
     FM302100 29010G18KT P6SM FEW070 SCT200

OUTLOOK FOR THE RENO-CARSON CITY-MINDEN AREA:
.TUESDAY...SUNNY. HIGHS 83 TO 88. LIGHT WINDS.

SUNRISE AND SUNSET
MAY 30 2016...........SUNRISE   535 AM PDT   SUNSET   819 PM PDT
MAY 31 2016...........SUNRISE   534 AM PDT   SUNSET   820 PM PDT



USA.gov is the U.S. government's official web portal to all federal, state and local government web resources and services.